Grass Valley, CA (95945)

6:37 AM PDT on August 28, 2014 (GMT -0700)
Jones Ridge | Change Station
CLOSE
Current Station
Personal Weather Station
Location: Grass Valley, CA
Elevation: 3061 ft
Nearby Weather Stations

Elev 3061 ft 39.22 °N, 120.94 °W | Updated 8 seconds ago

Clear
Clear
70.0 °F
Feels Like 70.0 °F
N
0.0
Wind Variable Wind from WSW
Gusts 0.0 mph

Today
High -- | Low -- °F
--% Chance of Precip.
Yesterday
High -- | Low -- °F
Precip. -- in
6:28 AM 7:40 PM
Waxing Crescent, 8% visible
Pressure 30.06 in
Visibility 10.0 miles
Clouds Clear
Dew Point 49 °F
Humidity 47%
Rainfall 0.00 in
Snow Depth Not available.
UV 0 out of 12
Pollen 8.50 out of 12
Ozone Unhealthy for Sensitive Groups
Flu Activity Not available.
METAR KAUN 281315Z AUTO 10006KT 10SM CLR 22/09 A3006 RMK AO1

More Conditions Fewer Conditions

Pressure 30.06 in
Visibility 10.0 miles
Clouds Clear
Dew Point 49 °F
Humidity 47%
Rainfall 0.00 in
Snow Depth Not available.
UV 0 out of 12
Pollen 8.50 out of 12
Ozone Unhealthy for Sensitive Groups
Flu Activity Not available.
METAR KAUN 281315Z AUTO 10006KT 10SM CLR 22/09 A3006 RMK AO1

More Conditions Fewer Conditions

10-Day Weather Forecast

Almanac

Astronomy

Aug. 28, 2014 Rise Set
Actual Time 6:28 AM PDT 7:40 PM PDT
Civil Twilight 6:01 AM PDT 8:07 PM PDT
Nautical Twilight 5:28 AM PDT 8:40 PM PDT
Astronomical Twilight 4:53 AM PDT 9:15 PM PDT
Moon 9:24 AM PDT 9:08 PM PDT
Length of Visible Light 14h 06m
Length of Day
13h 11m
Tomorrow will be 2m 25s shorter.
Waxing Crescent, 8% of the Moon is Illuminated
Today
Waxing Crescent
Sep 2
First Quarter
Sep 8
Full
Sep 15
Last Quarter
Sep 24
New

Today's Extremes

State Highs State Lows

Community

WunderPhotos

Upload Photos

1,747,947 photos uploaded!

Nearby

Air Quality

  Air Quality AQ Index Pollutant
Yesterday Unhealthy for Sensitive Groups
OZONE
Current Unhealthy for Sensitive Groups
OZONE
Thursday Moderate
OZONE
Friday Moderate
OZONE
Saturday Moderate
OZONE

Snow Depth

Station Depth Elevation
CSS Lab 3 in 6900 ft
Squaw Valley 0 in 8200 ft
Independence Creek 0 in 6500 ft
Tahoe City Cross 0 in 6750 ft
Rubicon #2 0 in 7500 ft

Earthquake Activity

City Distance Mag. Time & Date
Napa, California 100 miles 2.6 11:57 AM PDT
2014-08-27
The Geysers, California 105 miles 2.6 7:42 AM PDT
2014-08-27
Napa, California 100 miles 2.5 10:56 AM PDT
2014-08-26
Napa, California 100 miles 3.0 6:45 AM PDT
2014-08-26
Minimum magnitude displayed is 2.5.

Coastal Water Temperatures

Place Temperature
No Stations Reporting

Nearby Weather Stations